createdAt,value
2016-11-29T00:00:22.975Z,0.31
2016-11-29T00:01:31.666Z,0.24
2016-11-29T00:02:40.400Z,0.26
2016-11-29T00:03:49.087Z,0.19
2016-11-29T00:04:57.770Z,0.15
2016-11-29T00:06:06.458Z,0.18
2016-11-29T00:07:15.206Z,0.12
2016-11-29T00:08:24.090Z,0.16
2016-11-29T00:09:32.776Z,0.18
2016-11-29T00:10:41.461Z,0.12
2016-11-29T00:11:50.179Z,0.12
2016-11-29T00:12:58.869Z,0.15
2016-11-29T00:14:07.604Z,0.18
2016-11-29T00:15:16.293Z,0.16
2016-11-29T00:16:24.979Z,0.26
2016-11-29T00:17:33.700Z,0.27
2016-11-29T00:18:42.382Z,0.3
2016-11-29T00:19:51.119Z,0.26
2016-11-29T00:20:59.805Z,0.31
2016-11-29T00:22:08.494Z,0.34
2016-11-29T00:23:17.185Z,0.44
2016-11-29T00:24:25.871Z,0.45
2016-11-29T00:25:34.613Z,0.49
2016-11-29T00:26:43.304Z,0.49
2016-11-29T00:27:51.990Z,0.51
2016-11-29T00:29:00.672Z,0.48
2016-11-29T00:30:09.364Z,0.56
2016-11-29T00:31:18.100Z,0.44
2016-11-29T00:32:26.782Z,0.44
2016-11-29T00:33:35.811Z,0.51
2016-11-29T00:34:44.497Z,0.48
2016-11-29T00:35:53.187Z,0.48
2016-11-29T00:37:01.922Z,0.42
2016-11-29T00:38:10.618Z,0.33
2016-11-29T00:39:19.305Z,0.36
2016-11-29T00:40:27.990Z,0.4
2016-11-29T00:41:36.670Z,0.3
2016-11-29T00:42:45.454Z,0.29
2016-11-29T00:43:54.137Z,0.31
2016-11-29T00:45:02.827Z,0.36
2016-11-29T00:46:11.515Z,0.33
2016-11-29T00:47:20.210Z,0.31
2016-11-29T00:48:28.948Z,0.33
2016-11-29T00:49:37.684Z,0.33
2016-11-29T00:50:46.386Z,0.33
2016-11-29T00:51:55.072Z,0.29
2016-11-29T00:53:03.759Z,0.33
2016-11-29T00:54:12.509Z,0.27
2016-11-29T00:55:21.193Z,0.12
2016-11-29T00:56:29.880Z,0.12
2016-11-29T00:57:38.569Z,0.12
2016-11-29T00:58:47.257Z,0.16
2016-11-29T00:59:56.305Z,0.15
2016-11-29T01:01:04.991Z,0.19
2016-11-29T01:02:13.674Z,0.13
2016-11-29T01:03:22.359Z,0.09
2016-11-29T01:04:31.056Z,0
2016-11-29T01:05:39.799Z,0.06
2016-11-29T01:06:48.487Z,0.09
2016-11-29T01:07:57.181Z,0.01
2016-11-29T01:09:05.868Z,0.08
2016-11-29T01:10:14.556Z,0.13
2016-11-29T01:11:23.317Z,0.09
2016-11-29T01:12:32.003Z,0.33
2016-11-29T01:13:40.692Z,0.29
2016-11-29T01:14:49.378Z,0.44
2016-11-29T01:15:58.062Z,0.39
2016-11-29T01:17:06.756Z,0.34
2016-11-29T01:18:15.440Z,0.33
2016-11-29T01:19:24.125Z,0.3
2016-11-29T01:20:32.817Z,0.29
2016-11-29T01:21:41.504Z,0.19
2016-11-29T01:22:50.187Z,0.19
2016-11-29T01:23:58.900Z,0.13
2016-11-29T01:25:07.906Z,0.12
2016-11-29T01:26:16.592Z,0.09
2016-11-29T01:27:25.279Z,0.08
2016-11-29T01:28:33.999Z,0.08
2016-11-29T01:29:42.683Z,0.09
2016-11-29T01:30:51.367Z,0.06
2016-11-29T01:32:00.055Z,0.01
2016-11-29T01:33:08.746Z,0
2016-11-29T01:34:17.432Z,0.02
2016-11-29T01:35:26.148Z,0.05
2016-11-29T01:36:34.840Z,0.09
2016-11-29T01:37:43.519Z,0.05
2016-11-29T01:38:52.203Z,0.01
2016-11-29T01:40:00.890Z,-0.02
2016-11-29T01:41:09.575Z,-0.05
2016-11-29T01:42:18.268Z,0.08
2016-11-29T01:43:26.951Z,0.02
2016-11-29T01:44:35.666Z,-0.05
2016-11-29T01:45:44.350Z,-0.13
2016-11-29T01:46:53.034Z,-0.03
2016-11-29T01:48:01.715Z,-0.17
2016-11-29T01:49:10.404Z,-0.17
2016-11-29T01:50:19.085Z,-0.1
2016-11-29T01:51:27.774Z,-0.17
2016-11-29T01:52:36.803Z,-0.09
2016-11-29T01:53:45.492Z,-0.1
2016-11-29T01:54:54.180Z,-0.12
2016-11-29T01:56:02.872Z,-0.07
2016-11-29T01:57:11.565Z,-0.07
2016-11-29T01:58:20.248Z,-0.07
2016-11-29T01:59:28.937Z,-0.05
2016-11-29T02:00:37.631Z,-0.09
2016-11-29T02:01:46.322Z,-0.13
2016-11-29T02:02:55.009Z,-0.13
2016-11-29T02:04:03.698Z,-0.12
2016-11-29T02:05:12.381Z,-0.2
2016-11-29T02:06:21.065Z,-0.21
2016-11-29T02:07:29.754Z,-0.17
2016-11-29T02:08:38.443Z,-0.15
2016-11-29T02:09:47.123Z,-0.05
2016-11-29T02:10:55.807Z,-0.03
2016-11-29T02:12:04.528Z,-0.09
2016-11-29T02:13:13.214Z,-0.07
2016-11-29T02:14:21.929Z,-0.09
2016-11-29T02:15:30.618Z,0.02
2016-11-29T02:16:39.306Z,-0.02
2016-11-29T02:17:47.991Z,-0.05
2016-11-29T02:18:56.677Z,-0.03
2016-11-29T02:20:05.363Z,-0.09
2016-11-29T02:21:14.046Z,-0.02
2016-11-29T02:22:22.730Z,-0.09
2016-11-29T02:23:31.415Z,-0.12
2016-11-29T02:24:40.098Z,-0.12
2016-11-29T02:25:48.782Z,-0.18
2016-11-29T02:26:57.469Z,-0.21
2016-11-29T02:28:06.168Z,-0.36
2016-11-29T02:29:14.853Z,-0.3
2016-11-29T02:30:23.535Z,-0.3
2016-11-29T02:31:32.226Z,-0.31
2016-11-29T02:32:40.914Z,-0.33
2016-11-29T02:33:49.604Z,-0.33
2016-11-29T02:34:58.321Z,-0.26
2016-11-29T02:36:07.007Z,-0.3
2016-11-29T02:37:15.692Z,-0.3
2016-11-29T02:38:24.379Z,-0.3
2016-11-29T02:39:33.064Z,-0.17
2016-11-29T02:40:41.757Z,-0.3
2016-11-29T02:41:50.449Z,-0.23
2016-11-29T02:42:59.133Z,-0.18
2016-11-29T02:44:07.821Z,-0.2
2016-11-29T02:45:16.508Z,-0.2
2016-11-29T02:46:25.195Z,-0.2
2016-11-29T02:47:33.877Z,-0.15
2016-11-29T02:48:42.564Z,0
2016-11-29T02:49:51.248Z,-0.02
2016-11-29T02:50:59.931Z,-0.03
2016-11-29T02:52:08.615Z,0.09
2016-11-29T02:53:17.300Z,0.05
2016-11-29T02:54:25.985Z,-0.03
2016-11-29T02:55:34.678Z,-0.02
2016-11-29T02:56:43.361Z,0.02
2016-11-29T02:57:52.046Z,-0.02
2016-11-29T02:59:01.053Z,-0.05
2016-11-29T03:00:09.740Z,-0.13
2016-11-29T03:01:18.425Z,-0.13
2016-11-29T03:02:27.108Z,-0.3
2016-11-29T03:03:35.791Z,-0.39
2016-11-29T03:04:44.479Z,-0.39
2016-11-29T03:05:53.165Z,-0.45
2016-11-29T03:07:01.855Z,-0.42
2016-11-29T03:08:10.544Z,-0.49
2016-11-29T03:09:19.227Z,-0.57
2016-11-29T03:10:27.911Z,-0.57
2016-11-29T03:11:36.603Z,-0.63
2016-11-29T03:12:45.315Z,-0.62
2016-11-29T03:13:54.003Z,-0.57
2016-11-29T03:15:02.697Z,-0.74
2016-11-29T03:16:11.397Z,-0.66
2016-11-29T03:17:20.078Z,-0.77
2016-11-29T03:18:28.763Z,-0.69
2016-11-29T03:19:37.453Z,-0.81
2016-11-29T03:20:46.143Z,-0.94
2016-11-29T03:21:54.828Z,-0.85
2016-11-29T03:23:03.618Z,-0.99
2016-11-29T03:24:12.308Z,-1.04
2016-11-29T03:25:21.001Z,-0.93
2016-11-29T03:26:29.710Z,-0.93
2016-11-29T03:27:38.395Z,-0.97
2016-11-29T03:28:47.083Z,-0.99
2016-11-29T03:29:55.778Z,-0.96
2016-11-29T03:31:04.470Z,-0.94
2016-11-29T03:32:13.156Z,-0.87
2016-11-29T03:33:21.839Z,-0.94
2016-11-29T03:34:30.525Z,-0.97
2016-11-29T03:35:39.210Z,-0.84
2016-11-29T03:36:47.892Z,-0.82
2016-11-29T03:37:56.576Z,-0.91
2016-11-29T03:39:05.265Z,-0.94
2016-11-29T03:40:13.952Z,-0.87
2016-11-29T03:41:22.970Z,-0.82
2016-11-29T03:42:31.657Z,-0.85
2016-11-29T03:43:40.342Z,-0.8
2016-11-29T03:44:49.032Z,-0.77
2016-11-29T03:45:57.753Z,-0.77
2016-11-29T03:47:06.444Z,-0.84
2016-11-29T03:48:15.127Z,-0.81
2016-11-29T03:49:23.808Z,-0.77
2016-11-29T03:50:32.490Z,-0.75
2016-11-29T03:51:41.177Z,-0.75
2016-11-29T03:52:49.861Z,-0.59
2016-11-29T03:53:58.549Z,-0.54
2016-11-29T03:55:07.238Z,-0.53
2016-11-29T03:56:15.924Z,-0.57
2016-11-29T03:57:24.609Z,-0.51
2016-11-29T03:58:33.301Z,-0.49
2016-11-29T03:59:41.982Z,-0.48
2016-11-29T04:00:50.663Z,-0.39
2016-11-29T04:01:59.680Z,-0.45
2016-11-29T04:03:08.360Z,-0.42
2016-11-29T04:04:17.042Z,-0.38
2016-11-29T04:05:25.721Z,-0.39
2016-11-29T04:06:34.407Z,-0.36
2016-11-29T04:07:43.091Z,-0.38
2016-11-29T04:08:51.776Z,-0.48
2016-11-29T04:10:00.464Z,-0.53
2016-11-29T04:11:09.158Z,-0.42
2016-11-29T04:12:17.842Z,-0.46
2016-11-29T04:13:26.535Z,-0.39
2016-11-29T04:14:35.248Z,-0.38
2016-11-29T04:15:43.936Z,-0.35
2016-11-29T04:16:52.623Z,-0.38
2016-11-29T04:18:01.306Z,-0.3
2016-11-29T04:19:09.995Z,-0.31
2016-11-29T04:20:18.682Z,-0.12
2016-11-29T04:21:27.430Z,-0.2
2016-11-29T04:22:36.118Z,-0.21
2016-11-29T04:23:45.118Z,-0.2
2016-11-29T04:24:53.801Z,-0.33
2016-11-29T04:26:02.483Z,-0.27
2016-11-29T04:27:11.171Z,-0.33
2016-11-29T04:28:19.863Z,-0.28
2016-11-29T04:29:28.557Z,-0.31
2016-11-29T04:30:37.240Z,-0.3
2016-11-29T04:31:45.923Z,-0.2
2016-11-29T04:32:54.611Z,-0.09
2016-11-29T04:34:03.293Z,-0.21
2016-11-29T04:35:11.981Z,-0.2
2016-11-29T04:36:20.669Z,-0.1
2016-11-29T04:37:29.354Z,-0.18
2016-11-29T04:38:38.043Z,-0.23
2016-11-29T04:39:46.733Z,-0.31
2016-11-29T04:40:55.419Z,-0.31
2016-11-29T04:42:04.111Z,-0.39
2016-11-29T04:43:12.799Z,-0.38
2016-11-29T04:44:21.483Z,-0.39
2016-11-29T04:45:30.164Z,-0.36
2016-11-29T04:46:38.853Z,-0.39
2016-11-29T04:47:47.542Z,-0.36
2016-11-29T04:48:56.226Z,-0.41
2016-11-29T04:50:05.234Z,-0.38
2016-11-29T04:51:13.918Z,-0.44
2016-11-29T04:52:22.600Z,-0.42
2016-11-29T04:53:31.598Z,-0.33
2016-11-29T04:54:40.602Z,-0.36
2016-11-29T04:55:49.289Z,-0.39
2016-11-29T04:56:57.970Z,-0.35
2016-11-29T04:58:06.654Z,-0.46
2016-11-29T04:59:15.340Z,-0.48
2016-11-29T05:00:24.020Z,-0.46
2016-11-29T05:01:32.699Z,-0.51
2016-11-29T05:02:41.380Z,-0.56
2016-11-29T05:03:50.066Z,-0.67
2016-11-29T05:04:58.748Z,-0.6
2016-11-29T05:06:07.435Z,-0.66
2016-11-29T05:07:16.126Z,-0.69
2016-11-29T05:08:24.807Z,-0.59
2016-11-29T05:09:33.487Z,-0.59
2016-11-29T05:10:42.174Z,-0.6
2016-11-29T05:11:50.854Z,-0.53
2016-11-29T05:12:59.536Z,-0.53
2016-11-29T05:14:08.220Z,-0.53
2016-11-29T05:15:16.904Z,-0.48
2016-11-29T05:16:25.585Z,-0.45
2016-11-29T05:17:34.268Z,-0.41
2016-11-29T05:18:42.949Z,-0.38
2016-11-29T05:19:51.633Z,-0.45
2016-11-29T05:21:00.320Z,-0.44
2016-11-29T05:22:09.001Z,-0.39
2016-11-29T05:23:17.685Z,-0.33
2016-11-29T05:24:26.366Z,-0.45
2016-11-29T05:25:35.049Z,-0.49
2016-11-29T05:26:43.763Z,-0.44
2016-11-29T05:27:52.446Z,-0.35
2016-11-29T05:29:01.128Z,-0.44
2016-11-29T05:30:09.816Z,-0.49
2016-11-29T05:31:18.502Z,-0.48
2016-11-29T05:32:27.185Z,-0.51
2016-11-29T05:33:35.867Z,-0.44
2016-11-29T05:34:44.861Z,-0.57
2016-11-29T05:35:53.548Z,-0.51
2016-11-29T05:37:02.228Z,-0.51
2016-11-29T05:38:10.909Z,-0.56
2016-11-29T05:39:19.591Z,-0.51
2016-11-29T05:40:28.283Z,-0.56
2016-11-29T05:41:36.974Z,-0.6
2016-11-29T05:42:45.653Z,-0.64
2016-11-29T05:43:54.337Z,-0.69
2016-11-29T05:45:03.382Z,-0.67
2016-11-29T05:46:12.067Z,-0.67
2016-11-29T05:47:20.752Z,-0.67
2016-11-29T05:48:29.436Z,-0.63
2016-11-29T05:49:38.120Z,-0.64
2016-11-29T05:50:46.798Z,-0.66
2016-11-29T05:51:55.485Z,-0.67
2016-11-29T05:53:04.164Z,-0.62
2016-11-29T05:54:12.850Z,-0.53
2016-11-29T05:55:21.534Z,-0.56
2016-11-29T05:56:30.215Z,-0.42
2016-11-29T05:57:38.896Z,-0.21
2016-11-29T05:58:47.575Z,-0.15
2016-11-29T05:59:56.262Z,-0.03
2016-11-29T06:01:04.945Z,0.19
2016-11-29T06:02:13.629Z,0.33
2016-11-29T06:03:22.314Z,0.29
2016-11-29T06:04:30.995Z,0.37
2016-11-29T06:05:39.675Z,0.51
2016-11-29T06:06:48.362Z,0.51
2016-11-29T06:07:57.052Z,0.64
2016-11-29T06:09:05.732Z,0.55
2016-11-29T06:10:14.414Z,0.59
2016-11-29T06:11:23.115Z,0.64
2016-11-29T06:12:31.808Z,0.51
2016-11-29T06:13:40.490Z,0.45
2016-11-29T06:14:49.179Z,0.51
2016-11-29T06:15:58.185Z,0.44
2016-11-29T06:17:06.867Z,0.34
2016-11-29T06:18:15.551Z,0.33
2016-11-29T06:19:24.233Z,0.31
2016-11-29T06:20:32.921Z,0.2
2016-11-29T06:21:41.606Z,0.15
2016-11-29T06:22:50.291Z,0.05
2016-11-29T06:23:59.321Z,-0.03
2016-11-29T06:25:08.003Z,0.02
2016-11-29T06:26:16.689Z,-0.03
2016-11-29T06:27:25.374Z,-0.03
2016-11-29T06:28:34.055Z,0
2016-11-29T06:29:42.733Z,0.05
2016-11-29T06:30:51.425Z,0.06
2016-11-29T06:32:00.112Z,-0.06
2016-11-29T06:33:08.835Z,0.05
2016-11-29T06:34:17.524Z,-0.05
2016-11-29T06:35:26.211Z,0.06
2016-11-29T06:36:34.921Z,-0.02
2016-11-29T06:37:43.604Z,-0.03
2016-11-29T06:38:52.283Z,0.09
2016-11-29T06:40:00.965Z,-0.07
2016-11-29T06:41:09.655Z,0.09
2016-11-29T06:42:18.361Z,0.06
2016-11-29T06:43:27.041Z,-0.09
2016-11-29T06:44:35.726Z,0
2016-11-29T06:45:44.402Z,0.02
2016-11-29T06:46:53.083Z,0.09
2016-11-29T06:48:02.090Z,0.05
2016-11-29T06:49:11.089Z,0.06
2016-11-29T06:50:19.770Z,0.09
2016-11-29T06:51:28.459Z,0.06
2016-11-29T06:52:37.143Z,0.05
2016-11-29T06:53:45.825Z,0
2016-11-29T06:54:54.511Z,-0.03
2016-11-29T06:56:03.199Z,-0.05
2016-11-29T06:57:11.888Z,0.09
2016-11-29T06:58:20.587Z,0.09
2016-11-29T06:59:29.265Z,0.02
2016-11-29T07:00:37.953Z,0
2016-11-29T07:01:46.642Z,0.06
2016-11-29T07:02:55.322Z,0.06
2016-11-29T07:04:04.044Z,0.05
2016-11-29T07:05:12.724Z,-0.03
2016-11-29T07:06:21.414Z,0
2016-11-29T07:07:30.096Z,0
2016-11-29T07:08:38.788Z,0.01
2016-11-29T07:09:47.471Z,-0.07
2016-11-29T07:10:56.155Z,-0.02
2016-11-29T07:12:04.839Z,-0.06
2016-11-29T07:13:13.530Z,-0.05
2016-11-29T07:14:22.213Z,-0.09
2016-11-29T07:15:30.893Z,0.02
2016-11-29T07:16:39.582Z,0.02
2016-11-29T07:17:48.262Z,0.02
2016-11-29T07:18:56.951Z,-0.05
2016-11-29T07:20:05.640Z,0
2016-11-29T07:21:14.326Z,-0.02
2016-11-29T07:22:23.009Z,-0.09
2016-11-29T07:23:31.697Z,-0.09
2016-11-29T07:24:40.381Z,-0.09
2016-11-29T07:25:49.062Z,-0.12
2016-11-29T07:26:57.745Z,-0.17
2016-11-29T07:28:06.428Z,-0.13
2016-11-29T07:29:15.107Z,-0.1
2016-11-29T07:30:23.790Z,-0.12
2016-11-29T07:31:32.509Z,-0.17
2016-11-29T07:32:41.192Z,-0.17
2016-11-29T07:33:49.872Z,-0.15
2016-11-29T07:34:58.555Z,-0.18
2016-11-29T07:36:07.252Z,-0.13
2016-11-29T07:37:15.938Z,-0.2
2016-11-29T07:38:24.621Z,-0.26
2016-11-29T07:39:33.308Z,-0.28
2016-11-29T07:40:41.990Z,-0.38
2016-11-29T07:41:50.669Z,-0.35
2016-11-29T07:42:59.352Z,-0.33
2016-11-29T07:44:08.356Z,-0.41
2016-11-29T07:45:17.039Z,-0.46
2016-11-29T07:46:25.724Z,-0.39
2016-11-29T07:47:34.405Z,-0.53
2016-11-29T07:48:43.088Z,-0.53
2016-11-29T07:49:51.772Z,-0.59
2016-11-29T07:51:00.452Z,-0.51
2016-11-29T07:52:09.131Z,-0.41
2016-11-29T07:53:17.819Z,-0.46
2016-11-29T07:54:26.533Z,-0.45
2016-11-29T07:55:35.214Z,-0.36
2016-11-29T07:56:43.894Z,-0.3
2016-11-29T07:57:52.888Z,-0.26
2016-11-29T07:59:01.576Z,-0.31
2016-11-29T08:00:10.262Z,-0.28
2016-11-29T08:01:18.967Z,-0.3
2016-11-29T08:02:27.965Z,-0.27
2016-11-29T08:03:36.649Z,-0.31
2016-11-29T08:04:45.328Z,-0.26
2016-11-29T08:05:54.014Z,-0.31
2016-11-29T08:07:02.698Z,-0.23
2016-11-29T08:08:11.377Z,-0.2
2016-11-29T08:09:20.062Z,-0.1
2016-11-29T08:10:28.750Z,-0.13
2016-11-29T08:11:37.438Z,-0.12
2016-11-29T08:12:46.116Z,-0.13
2016-11-29T08:13:55.117Z,-0.03
2016-11-29T08:15:03.813Z,-0.12
2016-11-29T08:16:12.524Z,-0.15
2016-11-29T08:17:21.207Z,-0.12
2016-11-29T08:18:29.889Z,-0.1
2016-11-29T08:19:38.603Z,-0.2
2016-11-29T08:20:47.287Z,-0.15
2016-11-29T08:21:55.973Z,-0.18
2016-11-29T08:23:04.996Z,-0.13
2016-11-29T08:24:13.676Z,-0.17
2016-11-29T08:25:22.356Z,-0.1
2016-11-29T08:26:31.035Z,-0.13
2016-11-29T08:27:39.719Z,-0.18
2016-11-29T08:28:48.398Z,-0.21
2016-11-29T08:29:57.082Z,-0.31
2016-11-29T08:31:05.765Z,-0.23
2016-11-29T08:32:14.461Z,-0.2
2016-11-29T08:33:23.140Z,-0.28
2016-11-29T08:34:31.838Z,-0.24
2016-11-29T08:35:40.525Z,-0.21
2016-11-29T08:36:49.210Z,-0.18
2016-11-29T08:37:57.897Z,-0.23
2016-11-29T08:39:06.580Z,-0.21
2016-11-29T08:40:15.261Z,-0.31
2016-11-29T08:41:23.950Z,-0.27
2016-11-29T08:42:32.628Z,-0.36
2016-11-29T08:43:41.315Z,-0.36
2016-11-29T08:44:50.315Z,-0.38
2016-11-29T08:45:59.001Z,-0.36
2016-11-29T08:47:07.685Z,-0.21
2016-11-29T08:48:16.381Z,-0.26
2016-11-29T08:49:25.381Z,-0.15
2016-11-29T08:50:34.381Z,-0.21
2016-11-29T08:51:43.063Z,-0.2
2016-11-29T08:52:51.771Z,-0.12
2016-11-29T08:54:00.457Z,-0.13
2016-11-29T08:55:09.139Z,-0.06
2016-11-29T08:56:17.819Z,0
2016-11-29T08:57:26.499Z,0.02
2016-11-29T08:58:35.210Z,-0.02
2016-11-29T08:59:43.898Z,0.01
2016-11-29T09:00:52.574Z,-0.03
2016-11-29T09:02:01.259Z,0.02
2016-11-29T09:03:09.940Z,0
2016-11-29T09:04:18.936Z,0.05
2016-11-29T09:05:27.615Z,0.08
2016-11-29T09:06:36.307Z,0.2
2016-11-29T09:07:44.991Z,0.24
2016-11-29T09:08:53.679Z,0.29
2016-11-29T09:10:02.361Z,0.12
2016-11-29T09:11:11.056Z,0.26
2016-11-29T09:12:19.764Z,0.27
2016-11-29T09:13:28.494Z,0.27
2016-11-29T09:14:37.520Z,0.34
2016-11-29T09:15:46.204Z,0.48
2016-11-29T09:16:54.900Z,0.56
2016-11-29T09:18:03.582Z,0.76
2016-11-29T09:19:12.265Z,0.85
2016-11-29T09:20:20.955Z,0.89
2016-11-29T09:21:29.640Z,0.85
2016-11-29T09:22:38.326Z,0.78
2016-11-29T09:23:47.008Z,1
2016-11-29T09:24:55.691Z,0.96
2016-11-29T09:26:04.377Z,1.07
2016-11-29T09:27:13.063Z,1.06
2016-11-29T09:28:21.747Z,1.16
2016-11-29T09:29:30.427Z,1.25
2016-11-29T09:30:39.118Z,1.24
2016-11-29T09:31:48.132Z,1.3
2016-11-29T09:32:56.821Z,1.38
2016-11-29T09:34:05.505Z,1.39
2016-11-29T09:35:14.188Z,1.38
2016-11-29T09:36:22.876Z,1.39
2016-11-29T09:37:31.560Z,1.48
2016-11-29T09:38:40.239Z,1.57
2016-11-29T09:39:48.923Z,1.58
2016-11-29T09:40:57.606Z,1.6
2016-11-29T09:42:06.293Z,1.53
2016-11-29T09:43:14.976Z,1.6
2016-11-29T09:44:23.981Z,1.56
2016-11-29T09:45:32.669Z,1.64
2016-11-29T09:46:41.357Z,1.67
2016-11-29T09:47:50.043Z,1.71
2016-11-29T09:48:58.734Z,1.71
2016-11-29T09:50:07.426Z,1.75
2016-11-29T09:51:16.113Z,1.71
2016-11-29T09:52:24.799Z,1.79
2016-11-29T09:53:33.484Z,1.78
2016-11-29T09:54:42.165Z,1.81
2016-11-29T09:55:50.849Z,1.81
2016-11-29T09:56:59.560Z,1.85
2016-11-29T09:58:08.247Z,1.85
2016-11-29T09:59:16.930Z,1.84
2016-11-29T10:00:25.611Z,1.88
2016-11-29T10:01:34.295Z,1.88
2016-11-29T10:02:42.976Z,1.86
2016-11-29T10:03:51.676Z,2.04
2016-11-29T10:05:00.358Z,1.95
2016-11-29T10:06:09.049Z,1.93
2016-11-29T10:07:17.734Z,1.86
2016-11-29T10:08:26.482Z,1.92
2016-11-29T10:09:35.162Z,1.85
2016-11-29T10:10:43.845Z,1.84
2016-11-29T10:11:52.532Z,1.89
2016-11-29T10:13:01.220Z,1.88
2016-11-29T10:14:10.219Z,1.86
2016-11-29T10:15:18.906Z,1.89
2016-11-29T10:16:27.589Z,1.92
2016-11-29T10:17:36.277Z,1.88
2016-11-29T10:18:44.968Z,1.84
2016-11-29T10:19:53.656Z,1.82
2016-11-29T10:21:02.351Z,1.74
2016-11-29T10:22:11.036Z,1.68
2016-11-29T10:23:19.722Z,1.76
2016-11-29T10:24:28.410Z,1.82
2016-11-29T10:25:37.123Z,1.79
2016-11-29T10:26:45.810Z,1.88
2016-11-29T10:27:54.497Z,2.01
2016-11-29T10:29:03.493Z,1.95
2016-11-29T10:30:12.173Z,2.05
2016-11-29T10:31:20.857Z,1.97
2016-11-29T10:32:29.539Z,2.08
2016-11-29T10:33:38.224Z,2.05
2016-11-29T10:34:46.923Z,2.05
2016-11-29T10:35:55.606Z,2.16
2016-11-29T10:37:04.299Z,2.04
2016-11-29T10:38:12.986Z,2.01
2016-11-29T10:39:21.698Z,2.03
2016-11-29T10:40:30.383Z,2.04
2016-11-29T10:41:39.064Z,2.07
2016-11-29T10:42:47.754Z,2.14
2016-11-29T10:43:56.434Z,2.15
2016-11-29T10:45:05.121Z,2.04
2016-11-29T10:46:14.125Z,2.05
2016-11-29T10:47:22.812Z,2.01
2016-11-29T10:48:31.495Z,2.03
2016-11-29T10:49:40.181Z,2
2016-11-29T10:50:48.867Z,1.92
2016-11-29T10:51:57.551Z,1.82
2016-11-29T10:53:06.238Z,1.85
2016-11-29T10:54:14.922Z,1.86
2016-11-29T10:55:23.612Z,1.93
2016-11-29T10:56:32.295Z,1.89
2016-11-29T10:57:40.978Z,1.93
2016-11-29T10:58:49.664Z,1.92
2016-11-29T10:59:58.345Z,1.85
2016-11-29T11:01:07.031Z,1.89
2016-11-29T11:02:15.719Z,1.88
2016-11-29T11:03:24.400Z,1.81
2016-11-29T11:04:33.404Z,1.81
2016-11-29T11:05:42.090Z,1.89
2016-11-29T11:06:50.783Z,1.84
2016-11-29T11:07:59.467Z,1.74
2016-11-29T11:09:08.151Z,1.67
2016-11-29T11:10:16.833Z,1.7
2016-11-29T11:11:25.527Z,1.75
2016-11-29T11:12:34.317Z,1.67
2016-11-29T11:13:43.001Z,1.71
2016-11-29T11:14:51.690Z,1.85
2016-11-29T11:16:00.693Z,1.79
2016-11-29T11:17:09.378Z,1.84
2016-11-29T11:18:18.063Z,1.88
2016-11-29T11:19:26.747Z,1.89
2016-11-29T11:20:35.435Z,1.84
2016-11-29T11:21:44.116Z,1.89
2016-11-29T11:22:52.801Z,1.76
2016-11-29T11:24:01.485Z,1.82
2016-11-29T11:25:10.176Z,1.81
2016-11-29T11:26:18.878Z,1.84
2016-11-29T11:27:27.564Z,1.82
2016-11-29T11:28:36.248Z,1.86
2016-11-29T11:29:44.930Z,1.82
2016-11-29T11:30:53.615Z,1.95
2016-11-29T11:32:02.300Z,1.93
2016-11-29T11:33:10.990Z,1.95
2016-11-29T11:34:19.671Z,1.95
2016-11-29T11:35:28.355Z,1.88
2016-11-29T11:36:37.033Z,1.84
2016-11-29T11:37:45.717Z,1.86
2016-11-29T11:38:54.400Z,1.81
2016-11-29T11:40:03.086Z,1.84
2016-11-29T11:41:11.775Z,1.81
2016-11-29T11:42:20.461Z,1.78
2016-11-29T11:43:29.181Z,1.75
2016-11-29T11:44:38.190Z,1.7
2016-11-29T11:45:46.875Z,1.75
2016-11-29T11:46:55.621Z,1.63
2016-11-29T11:48:04.306Z,1.58
2016-11-29T11:49:12.988Z,1.56
2016-11-29T11:50:21.687Z,1.49
2016-11-29T11:51:30.400Z,1.43
2016-11-29T11:52:39.083Z,1.32
2016-11-29T11:53:47.770Z,1.39
2016-11-29T11:54:56.461Z,1.36
2016-11-29T11:56:05.253Z,1.34
2016-11-29T11:57:13.994Z,1.31
2016-11-29T11:58:22.676Z,1.32
2016-11-29T11:59:31.369Z,1.34
2016-11-29T12:00:40.056Z,1.34
2016-11-29T12:01:48.744Z,1.31
2016-11-29T12:02:57.429Z,1.31
2016-11-29T12:04:06.116Z,1.38
2016-11-29T12:05:14.801Z,1.36
2016-11-29T12:06:23.483Z,1.39
2016-11-29T12:07:32.495Z,1.42
2016-11-29T12:08:41.181Z,1.45
2016-11-29T12:09:49.862Z,1.38
2016-11-29T12:10:58.585Z,1.38
2016-11-29T12:12:07.581Z,1.4
2016-11-29T12:13:16.303Z,1.42
2016-11-29T12:14:24.990Z,1.34
2016-11-29T12:15:34.004Z,1.3
2016-11-29T12:16:42.691Z,1.36
2016-11-29T12:17:51.425Z,1.38
2016-11-29T12:19:00.246Z,1.31
2016-11-29T12:20:08.930Z,1.36
2016-11-29T12:21:17.622Z,1.3
2016-11-29T12:22:26.302Z,1.39
2016-11-29T12:23:35.004Z,1.31
2016-11-29T12:24:43.685Z,1.48
2016-11-29T12:25:52.367Z,1.43
2016-11-29T12:27:01.054Z,1.46
2016-11-29T12:28:09.746Z,1.53
2016-11-29T12:29:18.430Z,1.49
2016-11-29T12:30:27.108Z,1.46
2016-11-29T12:31:35.790Z,1.43
2016-11-29T12:32:44.478Z,1.46
2016-11-29T12:33:53.163Z,1.46
2016-11-29T12:35:01.847Z,1.46
2016-11-29T12:36:10.531Z,1.5
2016-11-29T12:37:19.221Z,1.56
2016-11-29T12:38:27.907Z,1.5
2016-11-29T12:39:36.816Z,1.5
2016-11-29T12:40:45.750Z,1.48
2016-11-29T12:41:54.436Z,1.43
2016-11-29T12:43:03.130Z,1.46
2016-11-29T12:44:12.137Z,1.53
2016-11-29T12:45:20.831Z,1.57
2016-11-29T12:46:29.546Z,1.56
2016-11-29T12:47:38.231Z,1.63
2016-11-29T12:48:46.922Z,1.68
2016-11-29T12:49:55.605Z,1.61
2016-11-29T12:51:04.291Z,1.71
2016-11-29T12:52:12.988Z,1.61
2016-11-29T12:53:22.480Z,1.63
2016-11-29T12:54:31.165Z,1.6
2016-11-29T12:55:39.847Z,1.57
2016-11-29T12:56:48.531Z,1.48
2016-11-29T12:57:57.209Z,1.57
2016-11-29T12:59:05.895Z,1.57
2016-11-29T13:00:14.579Z,1.46
2016-11-29T13:01:23.262Z,1.5
2016-11-29T13:02:31.940Z,1.67
2016-11-29T13:03:40.628Z,1.6
2016-11-29T13:04:49.314Z,1.7
2016-11-29T13:05:58.001Z,1.75
2016-11-29T13:07:06.683Z,1.74
2016-11-29T13:08:15.371Z,1.67
2016-11-29T13:09:24.068Z,1.81
2016-11-29T13:10:32.751Z,1.84
2016-11-29T13:11:41.515Z,1.88
2016-11-29T13:12:50.210Z,1.79
2016-11-29T13:13:58.894Z,1.85
2016-11-29T13:15:07.894Z,1.79
2016-11-29T13:16:16.578Z,1.85
2016-11-29T13:17:25.267Z,1.92
2016-11-29T13:18:33.955Z,1.88
2016-11-29T13:19:42.645Z,1.88
2016-11-29T13:20:51.328Z,1.93
2016-11-29T13:22:00.011Z,1.82
2016-11-29T13:23:08.695Z,1.88
2016-11-29T13:24:17.742Z,1.93
2016-11-29T13:25:26.739Z,1.86
2016-11-29T13:26:35.425Z,1.92
2016-11-29T13:27:44.107Z,1.93
2016-11-29T13:28:52.790Z,1.95
2016-11-29T13:30:01.474Z,1.92
2016-11-29T13:31:10.169Z,1.92
2016-11-29T13:32:18.855Z,1.88
2016-11-29T13:33:27.538Z,1.97
2016-11-29T13:34:36.228Z,1.97
2016-11-29T13:35:44.909Z,2.08
2016-11-29T13:36:53.597Z,2.04
2016-11-29T13:38:02.289Z,1.97
2016-11-29T13:39:10.969Z,2.04
2016-11-29T13:40:19.652Z,2.14
2016-11-29T13:41:28.333Z,2
2016-11-29T13:42:37.019Z,2
2016-11-29T13:43:45.702Z,2.01
2016-11-29T13:44:54.382Z,1.98
2016-11-29T13:46:03.066Z,1.88
2016-11-29T13:47:11.755Z,1.95
2016-11-29T13:48:20.440Z,1.92
2016-11-29T13:49:29.434Z,1.88
2016-11-29T13:50:38.120Z,1.93
2016-11-29T13:51:46.808Z,1.86
2016-11-29T13:52:55.496Z,1.82
2016-11-29T13:54:04.216Z,1.78
2016-11-29T13:55:12.906Z,1.71
2016-11-29T13:56:21.924Z,1.81
2016-11-29T13:57:30.605Z,1.82
2016-11-29T13:58:39.296Z,1.84
2016-11-29T13:59:47.980Z,1.93
2016-11-29T14:00:56.662Z,1.86
2016-11-29T14:02:05.348Z,1.92
2016-11-29T14:03:14.070Z,1.86
2016-11-29T14:04:22.778Z,2
2016-11-29T14:05:31.460Z,1.89
2016-11-29T14:06:40.148Z,1.89
2016-11-29T14:07:48.864Z,1.92
2016-11-29T14:08:57.547Z,1.86
2016-11-29T14:10:06.237Z,1.88
2016-11-29T14:11:14.926Z,1.82
2016-11-29T14:12:23.612Z,1.84
2016-11-29T14:13:32.299Z,1.78
2016-11-29T14:14:40.983Z,1.67
2016-11-29T14:15:49.669Z,1.7
2016-11-29T14:16:58.350Z,1.66
2016-11-29T14:18:07.038Z,1.68
2016-11-29T14:19:15.720Z,1.64
2016-11-29T14:20:24.401Z,1.63
2016-11-29T14:21:33.097Z,1.56
2016-11-29T14:22:41.783Z,1.42
2016-11-29T14:23:50.467Z,1.39
2016-11-29T14:24:59.154Z,1.34
2016-11-29T14:26:07.839Z,1.31
2016-11-29T14:27:16.519Z,1.22
2016-11-29T14:28:25.204Z,1.27
2016-11-29T14:29:34.211Z,1.14
2016-11-29T14:30:42.903Z,1.16
2016-11-29T14:31:51.587Z,1.02
2016-11-29T14:33:00.274Z,1.03
2016-11-29T14:34:08.959Z,1
2016-11-29T14:35:17.642Z,1.03
2016-11-29T14:36:26.329Z,0.99
2016-11-29T14:37:35.012Z,1.03
2016-11-29T14:38:43.701Z,1.04
2016-11-29T14:39:52.388Z,1.09
2016-11-29T14:41:01.074Z,1.03
2016-11-29T14:42:09.763Z,1.16
2016-11-29T14:43:18.445Z,1.09
2016-11-29T14:44:27.136Z,1.16
2016-11-29T14:45:35.852Z,1.12
2016-11-29T14:46:44.563Z,1.14
2016-11-29T14:47:53.250Z,1.18
2016-11-29T14:49:01.931Z,1.2
2016-11-29T14:50:10.617Z,1.14
2016-11-29T14:51:19.309Z,1.24
2016-11-29T14:52:27.992Z,1.24
2016-11-29T14:53:36.678Z,1.3
2016-11-29T14:54:45.365Z,1.38
2016-11-29T14:55:54.045Z,1.31
2016-11-29T14:57:02.727Z,1.39
2016-11-29T14:58:11.415Z,1.3
2016-11-29T14:59:20.107Z,1.22
2016-11-29T15:00:29.109Z,1.22
2016-11-29T15:01:37.793Z,1.21
2016-11-29T15:02:46.482Z,1.24
2016-11-29T15:03:55.164Z,1.21
2016-11-29T15:05:03.851Z,1.2
2016-11-29T15:06:12.533Z,1.09